Ely, MN

2:55 PM CST on February 10, 2016 (GMT -0600)
Ely Municipal

Weather History for KELO - January, 2012

Change the Weather History Date:

Sunday, January 8, 2012

  Actual Average Record
Temperature  
Mean Temperature 27 °F -  
Max Temperature 33 °F 15 °F 46 °F (2003)
Min Temperature 21 °F 0 °F -29 °F (2014)
Degree Days  
Heating Degree Days 38    
Moisture  
Dew Point 18 °F    
Average Humidity 73    
Maximum Humidity 86    
Minimum Humidity 52    
Precipitation  
Precipitation 0.00 in - - ()
Sea Level Pressure  
Sea Level Pressure 30.08 in    
Wind  
Wind Speed 6 mph (WSW)    
Max Wind Speed 13 mph    
Max Gust Speed 16 mph    
Visibility 10 miles    
Events Snow    
Averages and records for this station are not official NWS values.
T = Trace of Precipitation, MM = Missing Value Source: NWS Daily Summary

Daily Weather History Graph

Daily Weather History Graph

Search for Another Location

Airport or City:

Trip Planner

Search our weather history database for the weather conditions in past years. The results will help you decide how hot, cold, wet, or windy it might be!

Date:

Astronomy

Jan. 08, 2012 Rise Set
Actual Time 7:55 AM CST 4:32 PM CST
Civil Twilight 7:19 AM CST 5:08 PM CST
Nautical Twilight 6:40 AM CST 5:47 PM CST
Astronomical Twilight 6:03 AM CST 6:24 PM CST
Moon 4:17 PM CST (1/8) 7:13 AM CST (1/8)
Length of Visible Light 9h 48m
Length of Day
8h 37m
Full, 100% of the Moon is Illuminated
Jan 8
Full
Jan 9
Full
Jan 16
Last Quarter
Jan 23
New
Jan 30
First Quarter

Hourly Weather History & Observations

Time (CST) Temp. Windchill Dew Point Humidity Pressure Visibility Wind Dir Wind Speed Gust Speed Precip Events Conditions
12:13 AM 26.6 °F 19.1 °F 21.2 °F 80% 30.04 in 10.0 mi SW 6.9 mph - N/A   Overcast
12:32 AM 26.6 °F 22.6 °F 21.2 °F 80% 30.04 in 10.0 mi SW 3.5 mph - N/A   Overcast
12:53 AM 26.6 °F 21.2 °F 21.2 °F 80% 30.04 in 10.0 mi WSW 4.6 mph - N/A   Overcast
1:13 AM 26.6 °F 20.0 °F 21.2 °F 80% 30.04 in 10.0 mi WSW 5.8 mph - N/A   Overcast
1:32 AM 26.6 °F 20.0 °F 23.0 °F 86% 30.04 in 10.0 mi West 5.8 mph - N/A   Overcast
1:53 AM 26.6 °F 20.0 °F 23.0 °F 86% 30.04 in 10.0 mi West 5.8 mph - N/A   Overcast
2:13 AM 26.6 °F 17.5 °F 21.2 °F 80% 30.05 in 10.0 mi WNW 9.2 mph - N/A   Mostly Cloudy
2:33 AM 26.6 °F 19.1 °F 19.4 °F 74% 30.05 in 10.0 mi NW 6.9 mph - N/A   Overcast
2:53 AM 26.6 °F 18.2 °F 19.4 °F 74% 30.06 in 10.0 mi WNW 8.1 mph - N/A   Overcast
3:12 AM 26.6 °F 19.1 °F 19.4 °F 74% 30.06 in 10.0 mi WNW 6.9 mph - N/A   Overcast
3:33 AM 26.6 °F 18.2 °F 19.4 °F 74% 30.06 in 10.0 mi NW 8.1 mph - N/A   Overcast
3:53 AM 24.8 °F 13.4 °F 17.6 °F 74% 30.07 in 10.0 mi WNW 12.7 mph 16.1 mph N/A   Overcast
4:12 AM 24.8 °F 16.1 °F 17.6 °F 74% 30.08 in 10.0 mi NW 8.1 mph 16.1 mph N/A   Overcast
4:33 AM 24.8 °F 19.1 °F 17.6 °F 74% 30.08 in 10.0 mi NW 4.6 mph - N/A   Overcast
4:53 AM 23.0 °F 14.7 °F 17.6 °F 80% 30.08 in 10.0 mi NW 6.9 mph - N/A   Overcast
5:12 AM 23.0 °F 13.9 °F 17.6 °F 80% 30.10 in 10.0 mi WNW 8.1 mph - N/A   Mostly Cloudy
5:33 AM 23.0 °F 15.8 °F 17.6 °F 80% 30.10 in 10.0 mi West 5.8 mph - N/A   Overcast
5:53 AM 23.0 °F 15.8 °F 17.6 °F 80% 30.11 in 10.0 mi WNW 5.8 mph - N/A   Overcast
6:12 AM 23.0 °F 18.4 °F 17.6 °F 80% 30.11 in 10.0 mi WNW 3.5 mph - N/A   Overcast
6:33 AM 23.0 °F 17.0 °F 17.6 °F 80% 30.12 in 10.0 mi WNW 4.6 mph - N/A   Overcast
6:53 AM 23.0 °F 15.8 °F 17.6 °F 80% 30.13 in 10.0 mi WNW 5.8 mph - N/A Snow Light Snow
7:12 AM 21.2 °F 16.4 °F 15.8 °F 80% 30.12 in 10.0 mi NW 3.5 mph - N/A   Overcast
7:33 AM 21.2 °F - 15.8 °F 80% 30.12 in 10.0 mi Calm Calm - N/A   Overcast
7:52 AM 21.2 °F 16.4 °F 15.8 °F 80% 30.13 in 10.0 mi NW 3.5 mph - N/A   Overcast
8:13 AM 21.2 °F 14.9 °F 15.8 °F 80% 30.14 in 10.0 mi WNW 4.6 mph - N/A   Overcast
8:33 AM 21.2 °F - 15.8 °F 80% 30.15 in 10.0 mi Calm Calm - N/A   Overcast
8:52 AM 21.2 °F 16.4 °F 17.6 °F 86% 30.15 in 10.0 mi West 3.5 mph - N/A   Overcast
9:13 AM 21.2 °F 14.9 °F 17.6 °F 86% 30.16 in 10.0 mi WSW 4.6 mph - N/A   Overcast
9:33 AM 21.2 °F 13.6 °F 17.6 °F 86% 30.16 in 10.0 mi WSW 5.8 mph - N/A   Scattered Clouds
9:52 AM 23.0 °F 15.8 °F 17.6 °F 80% 30.16 in 10.0 mi WSW 5.8 mph - N/A   Clear
10:13 AM 23.0 °F 17.0 °F 17.6 °F 80% 30.16 in 10.0 mi WSW 4.6 mph - N/A   Scattered Clouds
10:33 AM 24.8 °F 19.1 °F 17.6 °F 74% 30.16 in 10.0 mi West 4.6 mph - N/A   Scattered Clouds
10:52 AM 24.8 °F 17.9 °F 17.6 °F 74% 30.16 in 10.0 mi SW 5.8 mph - N/A   Scattered Clouds
11:13 AM 24.8 °F 19.1 °F 17.6 °F 74% 30.15 in 10.0 mi SW 4.6 mph - N/A   Clear
11:33 AM 26.6 °F 22.6 °F 17.6 °F 69% 30.14 in 10.0 mi SW 3.5 mph - N/A   Clear
11:52 AM 26.6 °F - 17.6 °F 69% 30.13 in 10.0 mi Calm Calm - N/A   Clear
12:13 PM 28.4 °F 24.6 °F 17.6 °F 64% 30.13 in 10.0 mi WSW 3.5 mph - N/A   Clear
12:33 PM 28.4 °F 21.2 °F 17.6 °F 64% 30.11 in 10.0 mi WSW 6.9 mph - N/A   Clear
12:52 PM 30.2 °F 22.6 °F 17.6 °F 60% 30.10 in 10.0 mi SW 8.1 mph - N/A   Clear
1:13 PM 30.2 °F 21.9 °F 17.6 °F 60% 30.09 in 10.0 mi SW 9.2 mph - N/A   Clear
1:32 PM 30.2 °F 22.6 °F 17.6 °F 60% 30.08 in 10.0 mi SW 8.1 mph - N/A   Clear
1:53 PM 32.0 °F 26.4 °F 17.6 °F 55% 30.07 in 10.0 mi SSW 5.8 mph - N/A   Clear
2:13 PM 33.8 °F 28.6 °F 17.6 °F 52% 30.06 in 10.0 mi SW 5.8 mph - N/A   Clear
2:32 PM 33.8 °F 26.4 °F 17.6 °F 52% 30.06 in 10.0 mi SW 9.2 mph - N/A   Clear
2:53 PM 30.2 °F 22.6 °F 17.6 °F 60% 30.06 in 10.0 mi WSW 8.1 mph - N/A   Clear
3:13 PM 30.2 °F 24.3 °F 17.6 °F 60% 30.05 in 10.0 mi SSW 5.8 mph - N/A   Mostly Cloudy
3:33 PM 30.2 °F 22.6 °F 17.6 °F 60% 30.04 in 10.0 mi SW 8.1 mph - N/A   Scattered Clouds
3:52 PM 30.2 °F 22.6 °F 17.6 °F 60% 30.04 in 10.0 mi SSW 8.1 mph - N/A   Clear
4:13 PM 28.4 °F 21.2 °F 17.6 °F 64% 30.03 in 10.0 mi South 6.9 mph - N/A   Clear
4:33 PM 28.4 °F 22.2 °F 17.6 °F 64% 30.02 in 10.0 mi South 5.8 mph - N/A   Clear
4:52 PM 28.4 °F 22.2 °F 17.6 °F 64% 30.02 in 10.0 mi SSW 5.8 mph - N/A   Clear
5:13 PM 28.4 °F 21.2 °F 17.6 °F 64% 30.01 in 10.0 mi SSW 6.9 mph - N/A   Clear
5:33 PM 26.6 °F 18.2 °F 17.6 °F 69% 30.01 in 10.0 mi South 8.1 mph - N/A   Clear
5:53 PM 26.6 °F 20.0 °F 17.6 °F 69% 30.00 in 10.0 mi South 5.8 mph - N/A   Clear
6:13 PM 26.6 °F 18.2 °F 17.6 °F 69% 29.99 in 10.0 mi South 8.1 mph - N/A   Clear
6:32 PM 26.6 °F 17.5 °F 19.4 °F 74% 29.98 in 10.0 mi South 9.2 mph - N/A   Clear
6:53 PM 28.4 °F 21.2 °F 19.4 °F 69% 29.98 in 10.0 mi SSW 6.9 mph - N/A   Clear
7:13 PM 28.4 °F 21.2 °F 19.4 °F 69% 29.96 in 10.0 mi SSW 6.9 mph - N/A   Clear
7:33 PM 28.4 °F 19.7 °F 21.2 °F 74% 29.96 in 10.0 mi SSW 9.2 mph - N/A   Clear
7:53 PM 28.4 °F 19.1 °F 21.2 °F 74% 29.95 in 10.0 mi SSW 10.4 mph 16.1 mph N/A   Clear
8:13 PM 28.4 °F 19.7 °F 21.2 °F 74% 29.94 in 10.0 mi SSW 9.2 mph - N/A   Clear
8:32 PM 28.4 °F 19.1 °F 21.2 °F 74% 29.92 in 10.0 mi SSW 10.4 mph 16.1 mph N/A   Clear
8:53 PM 30.2 °F 20.2 °F 21.2 °F 69% 29.91 in 10.0 mi SSW 12.7 mph 19.6 mph N/A   Clear
9:13 PM 30.2 °F 20.8 °F 21.2 °F 69% 29.89 in 10.0 mi SW 11.5 mph 17.3 mph N/A   Clear
9:33 PM 30.2 °F 21.9 °F 21.2 °F 69% 29.87 in 10.0 mi SW 9.2 mph - N/A   Scattered Clouds
9:53 PM 30.2 °F 21.3 °F 21.2 °F 69% 29.86 in 10.0 mi SW 10.4 mph 17.3 mph N/A   Clear
10:13 PM 32.0 °F 22.1 °F 23.0 °F 69% 29.85 in 10.0 mi SW 13.8 mph 21.9 mph N/A   Scattered Clouds
10:32 PM 32.0 °F 23.0 °F 23.0 °F 69% 29.83 in 10.0 mi SW 11.5 mph 18.4 mph N/A   Scattered Clouds
10:53 PM 32.0 °F 23.0 °F 23.0 °F 69% 29.82 in 10.0 mi SW 11.5 mph 19.6 mph N/A   Mostly Cloudy
11:13 PM 30.2 °F 20.2 °F 23.0 °F 75% 29.80 in 10.0 mi SSW 12.7 mph 19.6 mph N/A   Scattered Clouds
11:32 PM 32.0 °F 22.1 °F 23.0 °F 69% 29.80 in 10.0 mi SW 13.8 mph - N/A   Mostly Cloudy
11:53 PM 32.0 °F 21.6 °F 23.0 °F 69% 29.78 in 10.0 mi SW 15.0 mph 20.7 mph N/A   Overcast